LRI297 EDDM-LOWW
Flight info
| Callsign | LRI297 |
|---|---|
| Flight time | N/A |
| Altitude | 23000 |
| Route | KIRDI4N KIRDI DCT BUWOQ DCT MASUR MASUR3W |
| Aircraft | A20N/M-SDE2E3FGHIRWXY/LB1 |
Departure
| Time | N/A |
|---|---|
| Airport | Munich Airport (EDDM) |
Arrival
| Time | 2026-05-05 05:44 |
|---|---|
| Airport | Vienna International Airport (LOWW) |
| Time | Latitude | Longitude | Altitude | Speed | Heading |
|---|---|---|---|---|---|
| 2026-05-05 05:27 | 48.32018 | 14.46202 | 22842 ft | 434 kts | 72° |
| 2026-05-05 05:27 | 48.32980 | 14.50800 | 22842 ft | 433 kts | 72° |
| 2026-05-05 05:27 | 48.34826 | 14.59648 | 22838 ft | 433 kts | 72° |
| 2026-05-05 05:28 | 48.35749 | 14.64090 | 22841 ft | 433 kts | 72° |
| 2026-05-05 05:28 | 48.36679 | 14.68576 | 22838 ft | 433 kts | 73° |
| 2026-05-05 05:28 | 48.37590 | 14.72981 | 22844 ft | 433 kts | 73° |
| 2026-05-05 05:28 | 48.38496 | 14.77368 | 22848 ft | 433 kts | 73° |
| 2026-05-05 05:29 | 48.39401 | 14.81758 | 22855 ft | 433 kts | 73° |
| 2026-05-05 05:29 | 48.40324 | 14.86251 | 22857 ft | 433 kts | 73° |
| 2026-05-05 05:29 | 48.41231 | 14.90672 | 22861 ft | 433 kts | 73° |
| 2026-05-05 05:29 | 48.42149 | 14.95158 | 22640 ft | 432 kts | 73° |
| 2026-05-05 05:30 | 48.43066 | 14.99644 | 22259 ft | 428 kts | 73° |
| 2026-05-05 05:30 | 48.43991 | 15.04189 | 21774 ft | 425 kts | 74° |
| 2026-05-05 05:30 | 48.44904 | 15.08676 | 21252 ft | 421 kts | 73° |
| 2026-05-05 05:30 | 48.45789 | 15.13042 | 20731 ft | 417 kts | 74° |
| 2026-05-05 05:31 | 48.46664 | 15.17362 | 20198 ft | 414 kts | 74° |
| 2026-05-05 05:31 | 48.47524 | 15.21623 | 19665 ft | 410 kts | 74° |
| 2026-05-05 05:31 | 48.48357 | 15.25753 | 19147 ft | 407 kts | 74° |
| 2026-05-05 05:31 | 48.49228 | 15.30086 | 18590 ft | 404 kts | 74° |
| 2026-05-05 05:32 | 48.50070 | 15.34286 | 18053 ft | 401 kts | 74° |
| 2026-05-05 05:32 | 48.50888 | 15.38375 | 17538 ft | 398 kts | 74° |
| 2026-05-05 05:32 | 48.51567 | 15.42590 | 16994 ft | 395 kts | 82° |
| 2026-05-05 05:32 | 48.51790 | 15.46895 | 16634 ft | 388 kts | 92° |
| 2026-05-05 05:33 | 48.51638 | 15.51051 | 16658 ft | 389 kts | 96° |
| 2026-05-05 05:33 | 48.51397 | 15.55182 | 16691 ft | 390 kts | 97° |
| 2026-05-05 05:33 | 48.51150 | 15.59256 | 16716 ft | 390 kts | 97° |
| 2026-05-05 05:33 | 48.50908 | 15.63368 | 16738 ft | 390 kts | 96° |
| 2026-05-05 05:34 | 48.50665 | 15.67580 | 16773 ft | 390 kts | 97° |
| 2026-05-05 05:34 | 48.50428 | 15.71636 | 16808 ft | 391 kts | 97° |
| 2026-05-05 05:34 | 48.50187 | 15.75755 | 16828 ft | 391 kts | 97° |
| 2026-05-05 05:34 | 48.49945 | 15.79856 | 16845 ft | 391 kts | 97° |
| 2026-05-05 05:35 | 48.49703 | 15.83948 | 16841 ft | 391 kts | 97° |
| 2026-05-05 05:35 | 48.49457 | 15.88095 | 16851 ft | 391 kts | 97° |
| 2026-05-05 05:35 | 48.49126 | 15.92167 | 16753 ft | 387 kts | 105° |
| 2026-05-05 05:35 | 48.48058 | 15.95826 | 16085 ft | 384 kts | 128° |
| 2026-05-05 05:36 | 48.46091 | 15.98522 | 15160 ft | 383 kts | 153° |
| 2026-05-05 05:36 | 48.43580 | 15.99848 | 14484 ft | 377 kts | 171° |
| 2026-05-05 05:36 | 48.40936 | 15.99936 | 13922 ft | 370 kts | 188° |
| 2026-05-05 05:36 | 48.38342 | 15.99248 | 13342 ft | 366 kts | 191° |
| 2026-05-05 05:37 | 48.35831 | 15.98560 | 12713 ft | 363 kts | 190° |
| 2026-05-05 05:37 | 48.33352 | 15.97935 | 12077 ft | 361 kts | 188° |
| 2026-05-05 05:37 | 48.30822 | 15.97906 | 11300 ft | 364 kts | 168° |
| 2026-05-05 05:37 | 48.28518 | 15.99525 | 10602 ft | 365 kts | 142° |
| 2026-05-05 05:38 | 48.26925 | 16.02540 | 10016 ft | 366 kts | 117° |
| 2026-05-05 05:38 | 48.26326 | 16.06243 | 9550 ft | 362 kts | 99° |
| 2026-05-05 05:38 | 48.25951 | 16.09845 | 8944 ft | 343 kts | 107° |
| 2026-05-05 05:38 | 48.25172 | 16.13238 | 8133 ft | 328 kts | 115° |
| 2026-05-05 05:39 | 48.24256 | 16.16289 | 7377 ft | 315 kts | 117° |
| 2026-05-05 05:39 | 48.23306 | 16.19223 | 6726 ft | 302 kts | 116° |
| 2026-05-05 05:39 | 48.22462 | 16.22058 | 6218 ft | 286 kts | 115° |
| 2026-05-05 05:39 | 48.21666 | 16.24697 | 5745 ft | 273 kts | 116° |
| 2026-05-05 05:40 | 48.20865 | 16.27219 | 5205 ft | 263 kts | 117° |
| 2026-05-05 05:40 | 48.20088 | 16.29589 | 4851 ft | 239 kts | 117° |
| 2026-05-05 05:40 | 48.19371 | 16.31756 | 4289 ft | 230 kts | 117° |
| 2026-05-05 05:40 | 48.18659 | 16.33900 | 3837 ft | 223 kts | 117° |
| 2026-05-05 05:41 | 48.17977 | 16.35963 | 3412 ft | 219 kts | 117° |
| 2026-05-05 05:41 | 48.17306 | 16.37998 | 3012 ft | 214 kts | 116° |
| 2026-05-05 05:41 | 48.16658 | 16.39969 | 2615 ft | 210 kts | 116° |
| 2026-05-05 05:41 | 48.16007 | 16.41955 | 2265 ft | 204 kts | 117° |
| 2026-05-05 05:42 | 48.15405 | 16.43795 | 2076 ft | 187 kts | 117° |
| 2026-05-05 05:42 | 48.14851 | 16.45486 | 1784 ft | 177 kts | 117° |
| 2026-05-05 05:42 | 48.14324 | 16.47095 | 1517 ft | 167 kts | 117° |
| 2026-05-05 05:42 | 48.13830 | 16.48604 | 1281 ft | 157 kts | 116° |
| 2026-05-05 05:43 | 48.13371 | 16.50010 | 1100 ft | 143 kts | 117° |
| 2026-05-05 05:43 | 48.12953 | 16.51294 | 852 ft | 133 kts | 116° |
| 2026-05-05 05:43 | 48.12566 | 16.52489 | 706 ft | 128 kts | 117° |
| 2026-05-05 05:43 | 48.12169 | 16.53676 | 580 ft | 128 kts | 117° |
| 2026-05-05 05:44 | 48.11810 | 16.54764 | 576 ft | 93 kts | 113° |
| 2026-05-05 05:44 | 48.11577 | 16.55491 | 578 ft | 71 kts | 116° |
| 2026-05-05 05:44 | 48.11380 | 16.56104 | 583 ft | 59 kts | 114° |
| 2026-05-05 05:44 | 48.11296 | 16.56576 | 589 ft | 36 kts | 87° |
| 2026-05-05 05:45 | 48.11322 | 16.56741 | 590 ft | 0 kts | 55° |
| 2026-05-05 05:45 | 48.11323 | 16.56743 | 590 ft | 2 kts | 55° |
| 2026-05-05 05:46 | 48.11367 | 16.56801 | 589 ft | 15 kts | 32° |
| 2026-05-05 05:46 | 48.11479 | 16.56885 | 588 ft | 19 kts | 24° |
| 2026-05-05 05:46 | 48.11592 | 16.56872 | 587 ft | 16 kts | 306° |
| 2026-05-05 05:46 | 48.11645 | 16.56719 | 585 ft | 15 kts | 295° |
| 2026-05-05 05:47 | 48.11706 | 16.56688 | 585 ft | 6 kts | 20° |
| 2026-05-05 05:47 | 48.11739 | 16.56708 | 584 ft | 0 kts | 24° |
| 2026-05-05 05:48 | 48.11740 | 16.56708 | 584 ft | 0 kts | 24° |
| 2026-05-05 05:48 | 48.11750 | 16.56715 | 584 ft | 3 kts | 24° |
| 2026-05-05 05:48 | 48.11751 | 16.56716 | 584 ft | 0 kts | 24° |